Pinegrove, Alabama
Current Conditions -  °F | °C
As of 6:53 AM on Friday 28 Nov 2014 (Local Time) from KBFM Reporting Station
Clear Clear  
Wind Chill: 34°   Ceiling: Unl
Heat Index: 40°   Visibility: 10mi
Dew Point: 32°   Wind: 8mph
Humidity: 73%   Direction: 10°N
Pressure: 30.45"   Gusts: NA
Location:  30.8772°N, 87.7146°W
Report Text: KBFM 281253Z 01007KT 10SM CLR 04/00 A3045 RMK AO2 SLP310 T00440000
Loading
Personal Weather Stations






























Interactive Weather Map New forecast layout! Learn more

10-Day Weather Forecast

Advertisements
Track Severe Weather on mobile